createdAt,value
2023-03-01T01:03:21.295Z,61.60
2023-03-01T01:07:26.441Z,59.85
2023-03-01T10:01:44.290Z,62.50
2023-03-01T13:20:01.517Z,60.10
2023-03-01T13:24:04.570Z,60.15
2023-03-01T13:32:48.437Z,61.83
2023-03-01T13:36:52.973Z,60.70
2023-03-01T13:41:01.870Z,61.83
2023-03-01T13:45:07.797Z,60.17
2023-03-01T13:49:16.316Z,61.65
2023-03-01T13:53:24.461Z,58.90
2023-03-01T13:57:34.908Z,58.50
2023-03-01T14:01:38.817Z,61.10
2023-03-01T14:05:43.401Z,61.20
2023-03-01T14:09:52.902Z,60.00
2023-03-01T14:14:32.096Z,60.87
2023-03-01T14:18:40.921Z,61.17
2023-03-01T14:22:44.979Z,60.60
2023-03-01T14:26:51.791Z,59.45
2023-03-01T14:30:56.073Z,61.60
2023-03-01T14:35:00.275Z,60.80
2023-03-01T14:39:06.760Z,60.90
2023-03-01T14:43:19.667Z,59.70
2023-03-01T14:47:29.106Z,59.65
2023-03-01T14:51:32.614Z,58.87
2023-03-01T14:55:38.760Z,60.25
2023-03-01T14:59:44.182Z,61.50
2023-03-01T15:03:50.275Z,62.28
2023-03-01T15:07:54.303Z,61.40
2023-03-01T15:11:57.251Z,62.37
2023-03-01T15:16:11.691Z,61.50
2023-03-01T15:20:22.524Z,61.37
2023-03-01T15:24:28.663Z,61.60
2023-03-01T15:28:34.242Z,60.20
2023-03-01T15:32:43.516Z,61.90
2023-03-01T15:36:51.118Z,62.15
2023-03-01T15:40:54.989Z,62.58
2023-03-01T15:49:29.753Z,61.20
2023-03-01T15:53:32.730Z,62.47
2023-03-01T15:57:36.127Z,62.85
2023-03-01T16:01:39.136Z,62.03
2023-03-01T16:05:43.460Z,63.00
2023-03-01T16:09:46.959Z,62.75
2023-03-01T16:13:51.233Z,61.33
2023-03-01T16:17:54.269Z,61.50
2023-03-01T16:21:58.789Z,62.00
2023-03-01T16:26:01.837Z,61.53
2023-03-01T16:30:06.721Z,62.55
2023-03-01T16:34:09.774Z,61.50
2023-03-01T16:38:14.172Z,61.95
2023-03-01T16:46:22.388Z,61.15
2023-03-01T16:50:25.438Z,61.77
2023-03-01T16:54:29.734Z,61.70
2023-03-01T16:58:32.698Z,62.50
2023-03-01T17:02:36.722Z,60.90
2023-03-01T17:06:39.753Z,63.25
2023-03-01T17:10:44.365Z,61.65
2023-03-01T17:14:48.690Z,62.63
2023-03-01T17:18:52.486Z,60.95
2023-03-01T17:22:55.463Z,61.17
2023-03-01T17:26:59.833Z,61.90
2023-03-01T17:35:12.005Z,61.30
2023-03-01T17:39:15.132Z,61.40
2023-03-01T17:43:20.109Z,61.60
2023-03-01T17:47:23.102Z,61.50
2023-03-01T17:51:26.170Z,61.90
2023-03-01T17:55:29.187Z,61.47
2023-03-01T17:59:37.377Z,61.40
2023-03-01T18:03:40.733Z,62.00
2023-03-01T18:07:45.724Z,62.35
2023-03-01T18:11:48.710Z,61.00
2023-03-01T18:15:53.030Z,62.90
2023-03-01T18:19:56.728Z,62.95
2023-03-01T18:24:00.654Z,61.70
2023-03-01T18:28:04.733Z,61.67
2023-03-01T18:32:09.441Z,61.57
2023-03-01T18:36:24.623Z,62.03
2023-03-01T18:40:27.744Z,62.45
2023-03-01T18:44:30.780Z,63.33
2023-03-01T18:48:36.899Z,62.60
2023-03-01T18:52:39.872Z,62.50
2023-03-01T18:56:44.522Z,61.50
2023-03-01T19:00:47.478Z,62.50
2023-03-01T19:17:01.093Z,60.25
2023-03-01T19:21:06.724Z,61.80
2023-03-01T19:25:10.767Z,62.00
2023-03-01T19:29:13.766Z,62.70
2023-03-01T19:33:17.808Z,61.90
2023-03-01T19:37:23.833Z,61.70
2023-03-01T19:41:27.097Z,62.70
2023-03-01T19:45:33.705Z,62.80
2023-03-01T19:49:37.789Z,62.73
2023-03-01T19:53:42.314Z,62.60
2023-03-01T19:57:45.286Z,62.80
2023-03-01T20:01:48.316Z,62.57
2023-03-01T20:05:51.278Z,63.58
2023-03-01T20:09:56.679Z,62.90
2023-03-01T20:14:00.109Z,62.50
2023-03-01T20:18:03.076Z,62.03
2023-03-01T20:22:06.064Z,63.10
2023-03-01T20:26:15.176Z,62.75
2023-03-01T20:30:18.584Z,62.30
2023-03-01T20:34:21.581Z,63.28
2023-03-01T20:38:25.546Z,62.75
2023-03-01T20:42:29.886Z,62.60
2023-03-01T20:46:33.734Z,62.22
2023-03-01T20:50:40.971Z,62.50
2023-03-01T20:54:44.007Z,63.03
2023-03-01T20:58:48.541Z,62.95
2023-03-01T21:02:51.545Z,64.90
2023-03-01T21:06:54.563Z,63.10
2023-03-01T21:10:58.793Z,62.72
2023-03-01T21:15:03.280Z,63.75
2023-03-01T21:23:09.164Z,62.40
2023-03-01T21:27:13.266Z,62.45
2023-03-01T21:31:19.504Z,61.80
2023-03-01T21:35:22.525Z,63.33
2023-03-01T21:39:29.041Z,63.80
2023-03-01T21:43:32.069Z,63.78
2023-03-01T21:47:36.450Z,63.40
2023-03-01T21:51:40.511Z,63.20
2023-03-01T21:55:48.229Z,64.20
2023-03-01T21:59:53.239Z,63.70
2023-03-01T22:03:58.998Z,63.40
2023-03-01T22:08:04.337Z,63.13
2023-03-01T22:12:07.794Z,62.20
2023-03-01T22:16:10.900Z,63.70
2023-03-01T22:20:16.158Z,63.30
2023-03-01T22:24:22.183Z,62.75
2023-03-01T22:28:25.231Z,62.50
2023-03-01T22:32:28.493Z,62.95
2023-03-01T22:36:33.723Z,61.97
2023-03-01T22:40:39.030Z,63.13
2023-03-01T22:44:42.128Z,62.67
2023-03-01T22:48:45.949Z,63.20
2023-03-01T22:52:50.613Z,62.90
2023-03-01T22:56:53.716Z,63.47
2023-03-01T23:00:56.725Z,64.20
2023-03-01T23:04:59.681Z,64.93
2023-03-01T23:09:06.846Z,62.75
2023-03-01T23:13:09.879Z,62.40
2023-03-01T23:17:13.969Z,62.22
2023-03-01T23:21:18.847Z,61.77
2023-03-01T23:25:23.268Z,62.28
2023-03-01T23:29:26.366Z,62.23
2023-03-01T23:33:33.310Z,61.70
2023-03-01T23:37:36.290Z,62.50
2023-03-01T23:41:41.028Z,61.70
2023-03-01T23:45:44.087Z,62.00
2023-03-01T23:49:47.108Z,61.40
2023-03-01T23:53:55.245Z,61.05
2023-03-01T23:57:59.564Z,60.93
